createdAt,value
2023-03-16T00:00:09.582Z,4.17
2023-03-16T00:02:37.098Z,4.19
2023-03-16T00:05:04.705Z,4.18
2023-03-16T00:07:34.304Z,4.17
2023-03-16T00:10:01.800Z,4.16
2023-03-16T00:12:29.346Z,4.16
2023-03-16T00:14:56.876Z,4.16
2023-03-16T00:17:24.357Z,4.15
2023-03-16T00:19:54.956Z,4.16
2023-03-16T00:22:23.074Z,4.16
2023-03-16T00:24:52.632Z,4.15
2023-03-16T00:27:20.180Z,4.14
2023-03-16T00:29:48.230Z,4.12
2023-03-16T00:32:17.383Z,4.11
2023-03-16T00:34:45.289Z,4.12
2023-03-16T00:37:14.045Z,4.14
2023-03-16T00:39:41.892Z,4.14
2023-03-16T00:42:11.084Z,4.14
2023-03-16T00:44:38.935Z,4.14
2023-03-16T00:47:06.575Z,4.14
2023-03-16T00:49:34.798Z,4.14
2023-03-16T00:52:02.766Z,4.15
2023-03-16T00:54:32.674Z,4.14
2023-03-16T00:57:00.378Z,4.14
2023-03-16T00:59:29.256Z,4.15
2023-03-16T01:01:57.021Z,4.15
2023-03-16T01:04:24.646Z,4.15
2023-03-16T01:06:52.222Z,4.16
2023-03-16T01:09:20.520Z,4.15
2023-03-16T01:11:50.890Z,4.14
2023-03-16T01:14:18.419Z,4.14
2023-03-16T01:16:47.356Z,4.12
2023-03-16T01:19:15.497Z,4.11
2023-03-16T01:21:43.438Z,4.12
2023-03-16T01:24:11.111Z,4.12
2023-03-16T01:26:38.595Z,4.12
2023-03-16T01:29:06.195Z,4.11
2023-03-16T01:31:33.708Z,4.12
2023-03-16T01:34:04.137Z,4.11
2023-03-16T01:36:32.214Z,4.10
2023-03-16T01:39:00.302Z,4.10
2023-03-16T01:41:28.091Z,4.11
2023-03-16T01:43:58.233Z,4.09
2023-03-16T01:46:26.720Z,4.10
2023-03-16T01:49:05.537Z,4.12
2023-03-16T01:51:34.287Z,4.11
2023-03-16T01:54:02.818Z,4.12
2023-03-16T01:56:31.112Z,4.12
2023-03-16T01:58:59.324Z,4.13
2023-03-16T02:01:27.621Z,4.15
2023-03-16T02:03:56.699Z,4.16
2023-03-16T02:06:25.771Z,4.17
2023-03-16T02:08:55.273Z,4.17
2023-03-16T02:11:22.779Z,4.18
2023-03-16T02:13:50.423Z,4.18
2023-03-16T02:16:19.557Z,4.19
2023-03-16T02:18:47.308Z,4.20
2023-03-16T02:21:17.067Z,4.19
2023-03-16T02:23:46.007Z,4.20
2023-03-16T02:26:15.756Z,4.20
2023-03-16T02:28:48.584Z,4.20
2023-03-16T02:31:17.686Z,4.19
2023-03-16T02:33:45.292Z,4.19
2023-03-16T02:36:13.943Z,4.19
2023-03-16T02:38:41.535Z,4.19
2023-03-16T02:41:11.207Z,4.20
2023-03-16T02:43:39.305Z,4.19
2023-03-16T02:46:06.871Z,4.19
2023-03-16T02:48:37.456Z,4.18
2023-03-16T02:51:05.034Z,4.19
2023-03-16T02:53:32.544Z,4.19
2023-03-16T02:56:00.030Z,4.21
2023-03-16T02:58:27.575Z,4.22
2023-03-16T03:00:55.177Z,4.22
2023-03-16T03:03:22.805Z,4.22
2023-03-16T03:05:51.830Z,4.21
2023-03-16T03:08:20.331Z,4.23
2023-03-16T03:10:47.830Z,4.21
2023-03-16T03:13:15.336Z,4.21
2023-03-16T03:15:42.861Z,4.19
2023-03-16T03:18:10.384Z,4.19
2023-03-16T03:20:37.903Z,4.19
2023-03-16T03:23:06.808Z,4.18
2023-03-16T03:25:35.245Z,4.19
2023-03-16T03:28:05.409Z,4.19
2023-03-16T03:30:33.476Z,4.18
2023-03-16T03:33:01.537Z,4.19
2023-03-16T03:35:29.070Z,4.19
2023-03-16T03:37:56.601Z,4.19
2023-03-16T03:40:25.440Z,4.21
2023-03-16T03:42:52.953Z,4.21
2023-03-16T03:45:20.563Z,4.21
2023-03-16T03:47:48.015Z,4.22
2023-03-16T03:50:15.547Z,4.23
2023-03-16T03:52:43.021Z,4.23
2023-03-16T03:55:11.015Z,4.23
2023-03-16T03:57:39.928Z,4.23
2023-03-16T04:00:11.420Z,4.23
2023-03-16T04:02:39.278Z,4.24
2023-03-16T04:05:07.418Z,4.24
2023-03-16T04:07:34.924Z,4.24
2023-03-16T04:10:02.421Z,4.23
2023-03-16T04:12:29.853Z,4.24
2023-03-16T04:14:58.753Z,4.25
2023-03-16T04:17:26.221Z,4.25
2023-03-16T04:19:53.785Z,4.26
2023-03-16T04:22:23.173Z,4.25
2023-03-16T04:24:52.284Z,4.25
2023-03-16T04:27:19.758Z,4.24
2023-03-16T04:29:47.212Z,4.27
2023-03-16T04:32:16.205Z,4.27
2023-03-16T04:34:43.919Z,4.25
2023-03-16T04:37:11.845Z,4.26
2023-03-16T04:39:39.472Z,4.27
2023-03-16T04:42:07.341Z,4.27
2023-03-16T04:44:34.820Z,4.27
2023-03-16T04:47:02.414Z,4.26
2023-03-16T04:49:31.276Z,4.27
2023-03-16T04:51:58.751Z,4.28
2023-03-16T04:54:26.189Z,4.27
2023-03-16T04:56:53.701Z,4.28
2023-03-16T04:59:21.193Z,4.28
2023-03-16T05:01:48.756Z,4.27
2023-03-16T05:04:19.396Z,4.29
2023-03-16T05:06:48.806Z,4.29
2023-03-16T05:09:16.344Z,4.27
2023-03-16T05:11:43.959Z,4.26
2023-03-16T05:14:11.506Z,4.25
2023-03-16T05:16:39.021Z,4.25
2023-03-16T05:19:06.537Z,4.25
2023-03-16T05:21:34.290Z,4.22
2023-03-16T05:24:03.272Z,4.23
2023-03-16T05:26:31.369Z,4.23
2023-03-16T05:28:59.319Z,4.23
2023-03-16T05:31:27.356Z,4.23
2023-03-16T05:33:54.866Z,4.24
2023-03-16T05:36:22.355Z,4.24
2023-03-16T05:38:49.978Z,4.22
2023-03-16T05:41:21.350Z,4.22
2023-03-16T05:43:48.859Z,4.20
2023-03-16T05:46:17.467Z,4.21
2023-03-16T05:48:45.883Z,4.21
2023-03-16T05:51:14.232Z,4.19
2023-03-16T05:53:41.844Z,4.21
2023-03-16T05:56:09.573Z,4.19
2023-03-16T05:58:38.423Z,4.18
2023-03-16T06:01:07.304Z,4.19
2023-03-16T06:03:34.799Z,4.17
2023-03-16T06:06:02.522Z,4.19
2023-03-16T06:08:30.003Z,4.18
2023-03-16T06:10:57.473Z,4.20
2023-03-16T06:13:24.980Z,4.20
2023-03-16T06:15:53.835Z,4.22
2023-03-16T06:18:21.434Z,4.23
2023-03-16T06:20:48.950Z,4.23
2023-03-16T06:23:16.529Z,4.25
2023-03-16T06:25:44.126Z,4.27
2023-03-16T06:28:11.591Z,4.28
2023-03-16T06:30:39.160Z,4.31
2023-03-16T06:33:08.188Z,4.33
2023-03-16T06:35:35.796Z,4.35
2023-03-16T06:38:03.359Z,4.37
2023-03-16T06:40:31.090Z,4.40
2023-03-16T06:42:58.608Z,4.40
2023-03-16T06:45:26.157Z,4.41
2023-03-16T06:47:53.695Z,4.43
2023-03-16T06:50:22.600Z,4.43
2023-03-16T06:52:50.161Z,4.45
2023-03-16T06:55:17.753Z,4.45
2023-03-16T06:57:45.302Z,4.46
2023-03-16T07:00:14.139Z,4.47
2023-03-16T07:02:42.445Z,4.50
2023-03-16T07:05:13.058Z,4.50
2023-03-16T07:07:42.609Z,4.53
2023-03-16T07:10:11.535Z,4.55
2023-03-16T07:12:39.312Z,4.57
2023-03-16T07:15:07.254Z,4.61
2023-03-16T07:17:34.814Z,4.62
2023-03-16T07:20:05.360Z,4.64
2023-03-16T07:22:33.200Z,4.65
2023-03-16T07:25:02.022Z,4.68
2023-03-16T07:27:29.921Z,4.69
2023-03-16T07:29:57.509Z,4.71
2023-03-16T07:32:25.113Z,4.73
2023-03-16T07:34:53.503Z,4.74
2023-03-16T07:37:25.508Z,4.77
2023-03-16T07:39:53.339Z,4.79
2023-03-16T07:42:22.736Z,4.83
2023-03-16T07:44:51.907Z,4.87
2023-03-16T07:47:19.987Z,4.91
2023-03-16T07:49:47.584Z,4.95
2023-03-16T07:52:15.128Z,4.99
2023-03-16T07:54:43.258Z,5.03
2023-03-16T07:57:12.173Z,5.07
2023-03-16T07:59:41.533Z,5.12
2023-03-16T08:02:11.807Z,5.17
2023-03-16T08:04:42.365Z,5.21
2023-03-16T08:07:09.981Z,5.25
2023-03-16T08:09:37.506Z,5.29
2023-03-16T08:12:05.125Z,5.33
2023-03-16T08:14:34.343Z,5.35
2023-03-16T08:17:03.417Z,5.37
2023-03-16T08:19:30.851Z,5.38
2023-03-16T08:22:02.003Z,5.39
2023-03-16T08:24:31.034Z,5.40
2023-03-16T08:26:58.879Z,5.40
2023-03-16T08:29:26.530Z,5.42
2023-03-16T08:31:54.726Z,5.44
2023-03-16T08:34:23.719Z,5.48
2023-03-16T08:36:51.221Z,5.50
2023-03-16T08:39:18.701Z,5.52
2023-03-16T08:41:47.082Z,5.57
2023-03-16T08:44:14.695Z,5.58
2023-03-16T08:46:42.362Z,5.59
2023-03-16T08:49:09.968Z,5.62
2023-03-16T08:51:39.279Z,5.63
2023-03-16T08:54:07.515Z,5.64
2023-03-16T08:56:35.036Z,5.66
2023-03-16T08:59:03.643Z,5.65
2023-03-16T09:01:32.003Z,5.67
2023-03-16T09:04:00.560Z,5.67
2023-03-16T09:06:28.725Z,5.70
2023-03-16T09:08:57.622Z,5.69
2023-03-16T09:11:28.342Z,5.69
2023-03-16T09:13:55.819Z,5.70
2023-03-16T09:16:25.642Z,5.69
2023-03-16T09:18:53.568Z,5.70
2023-03-16T09:21:21.063Z,5.69
2023-03-16T09:23:48.547Z,5.70
2023-03-16T09:26:17.448Z,5.70
2023-03-16T09:28:45.976Z,5.70
2023-03-16T09:31:15.914Z,5.70
2023-03-16T09:33:43.957Z,5.71
2023-03-16T09:36:12.301Z,5.73
2023-03-16T09:38:39.838Z,5.76
2023-03-16T09:41:08.576Z,5.78
2023-03-16T09:43:47.157Z,5.82
2023-03-16T09:46:15.369Z,5.83
2023-03-16T09:48:42.923Z,5.85
2023-03-16T09:51:14.309Z,5.89
2023-03-16T09:53:41.971Z,5.94
2023-03-16T09:56:10.930Z,5.98
2023-03-16T09:58:38.697Z,6.00
2023-03-16T10:01:11.260Z,6.03
2023-03-16T10:03:45.409Z,6.04
2023-03-16T10:06:14.617Z,6.07
2023-03-16T10:08:42.641Z,6.12
2023-03-16T10:11:17.532Z,6.16
2023-03-16T10:13:45.709Z,6.21
2023-03-16T10:16:15.532Z,6.28
2023-03-16T10:18:43.826Z,6.33
2023-03-16T10:21:15.167Z,6.38
2023-03-16T10:23:42.719Z,6.43
2023-03-16T10:26:12.985Z,6.47
2023-03-16T10:28:42.808Z,6.49
2023-03-16T10:31:10.754Z,6.52
2023-03-16T10:33:40.508Z,6.54
2023-03-16T10:36:13.933Z,6.55
2023-03-16T10:38:43.170Z,6.57
2023-03-16T10:41:20.190Z,6.60
2023-03-16T10:43:49.252Z,6.62
2023-03-16T10:46:17.765Z,6.65
2023-03-16T10:48:54.680Z,6.69
2023-03-16T10:51:23.365Z,6.71
2023-03-16T10:53:50.932Z,6.73
2023-03-16T10:56:20.667Z,6.75
2023-03-16T10:58:48.162Z,6.75
2023-03-16T11:01:18.821Z,6.76
2023-03-16T11:03:50.462Z,6.76
2023-03-16T11:06:21.145Z,6.78
2023-03-16T11:08:48.826Z,6.82
2023-03-16T11:11:18.607Z,6.83
2023-03-16T11:13:47.052Z,6.86
2023-03-16T11:16:23.204Z,6.89
2023-03-16T11:18:53.173Z,6.91
2023-03-16T11:21:25.780Z,6.93
2023-03-16T11:23:54.287Z,6.96
2023-03-16T11:26:22.571Z,6.97
2023-03-16T11:28:51.776Z,6.99
2023-03-16T11:31:21.128Z,7.03
2023-03-16T11:33:49.075Z,7.04
2023-03-16T11:36:27.804Z,7.06
2023-03-16T11:38:57.899Z,7.10
2023-03-16T11:41:27.776Z,7.14
2023-03-16T11:43:56.874Z,7.20
2023-03-16T11:46:25.089Z,7.29
2023-03-16T11:48:54.628Z,7.38
2023-03-16T11:51:28.679Z,7.48
2023-03-16T11:53:58.910Z,7.58
2023-03-16T11:56:33.514Z,7.69
2023-03-16T11:59:22.125Z,7.77
2023-03-16T12:02:00.685Z,7.86
2023-03-16T12:04:36.992Z,7.93
2023-03-16T12:07:09.425Z,8.03
2023-03-16T12:09:58.167Z,8.12
2023-03-16T12:12:29.587Z,8.20
2023-03-16T12:15:02.370Z,8.28
2023-03-16T12:17:30.467Z,8.33
2023-03-16T12:19:58.792Z,8.39
2023-03-16T12:22:29.191Z,8.42
2023-03-16T12:24:56.710Z,8.45
2023-03-16T12:27:24.943Z,8.48
2023-03-16T12:30:01.798Z,8.49
2023-03-16T12:32:32.429Z,8.48
2023-03-16T12:35:01.954Z,8.45
2023-03-16T12:37:33.032Z,8.41
2023-03-16T12:40:10.728Z,8.39
2023-03-16T12:42:56.412Z,8.37
2023-03-16T12:45:25.595Z,8.34
2023-03-16T12:47:54.493Z,8.34
2023-03-16T12:50:21.982Z,8.34
2023-03-16T12:52:51.782Z,8.32
2023-03-16T12:55:20.004Z,8.33
2023-03-16T12:57:48.195Z,8.34
2023-03-16T13:00:16.232Z,8.37
2023-03-16T13:02:45.368Z,8.39
2023-03-16T13:05:14.029Z,8.42
2023-03-16T13:07:47.764Z,8.45
2023-03-16T13:10:17.181Z,8.50
2023-03-16T13:12:46.198Z,8.55
2023-03-16T13:15:26.413Z,8.63
2023-03-16T13:18:04.452Z,8.70
2023-03-16T13:20:32.700Z,8.87
2023-03-16T13:23:17.128Z,9.09
2023-03-16T13:25:46.552Z,9.32
2023-03-16T13:28:14.542Z,9.47
2023-03-16T13:30:44.882Z,9.58
2023-03-16T13:33:15.693Z,9.64
2023-03-16T13:35:43.303Z,9.67
2023-03-16T13:38:14.819Z,9.72
2023-03-16T13:40:47.888Z,9.77
2023-03-16T13:43:16.151Z,9.89
2023-03-16T13:45:43.818Z,10.02
2023-03-16T13:48:12.961Z,10.17
2023-03-16T13:50:41.354Z,10.28
2023-03-16T13:53:12.156Z,10.40
2023-03-16T13:55:40.234Z,10.53
2023-03-16T13:58:18.014Z,10.62
2023-03-16T14:00:45.886Z,10.68
2023-03-16T14:03:16.229Z,10.75
2023-03-16T14:05:43.914Z,10.77
2023-03-16T14:08:18.374Z,10.77
2023-03-16T14:10:46.723Z,10.72
2023-03-16T14:13:26.039Z,10.71
2023-03-16T14:15:54.654Z,10.71
2023-03-16T14:18:24.790Z,10.73
2023-03-16T14:20:52.438Z,10.76
2023-03-16T14:23:20.854Z,10.82
2023-03-16T14:25:48.874Z,10.84
2023-03-16T14:28:16.879Z,10.91
2023-03-16T14:30:52.462Z,10.98
2023-03-16T14:33:37.846Z,11.03
2023-03-16T14:36:09.211Z,11.08
2023-03-16T14:38:38.141Z,11.12
2023-03-16T14:41:07.989Z,11.18
2023-03-16T14:43:38.193Z,11.23
2023-03-16T14:46:07.464Z,11.25
2023-03-16T14:48:35.327Z,11.27
2023-03-16T14:51:03.118Z,11.28
2023-03-16T14:53:30.996Z,11.28
2023-03-16T14:55:58.732Z,11.28
2023-03-16T14:58:26.533Z,11.30
2023-03-16T15:00:55.468Z,11.33
2023-03-16T15:03:25.088Z,11.35
2023-03-16T15:05:52.631Z,11.38
2023-03-16T15:08:20.876Z,11.39
2023-03-16T15:10:48.498Z,11.41
2023-03-16T15:13:34.650Z,11.44
2023-03-16T15:16:03.408Z,11.44
2023-03-16T15:18:32.656Z,11.47
2023-03-16T15:21:00.415Z,11.49
2023-03-16T15:23:27.923Z,11.48
2023-03-16T15:26:00.139Z,11.50
2023-03-16T15:28:28.307Z,11.50
2023-03-16T15:30:56.549Z,11.49
2023-03-16T15:33:24.214Z,11.50
2023-03-16T15:35:55.603Z,11.47
2023-03-16T15:38:24.149Z,11.42
2023-03-16T15:40:52.161Z,11.35
2023-03-16T15:43:20.384Z,11.29
2023-03-16T15:45:48.194Z,11.24
2023-03-16T15:48:16.245Z,11.17
2023-03-16T15:50:45.811Z,11.13
2023-03-16T15:53:29.654Z,11.08
2023-03-16T15:55:59.207Z,11.03
2023-03-16T15:58:27.821Z,11.01
2023-03-16T16:00:57.075Z,10.96
2023-03-16T16:03:24.791Z,10.93
2023-03-16T16:05:52.641Z,10.89
2023-03-16T16:08:21.671Z,10.82
2023-03-16T16:10:49.546Z,10.77
2023-03-16T16:13:18.174Z,10.71
2023-03-16T16:15:45.666Z,10.68
2023-03-16T16:18:21.707Z,10.65
2023-03-16T16:20:49.764Z,10.63
2023-03-16T16:23:18.020Z,10.59
2023-03-16T16:25:47.016Z,10.56
2023-03-16T16:28:15.802Z,10.53
2023-03-16T16:30:43.433Z,10.49
2023-03-16T16:33:21.732Z,10.46
2023-03-16T16:35:49.255Z,10.41
2023-03-16T16:38:16.768Z,10.37
2023-03-16T16:40:46.106Z,10.33
2023-03-16T16:43:17.716Z,10.29
2023-03-16T16:45:45.232Z,10.24
2023-03-16T16:48:14.583Z,10.21
2023-03-16T16:50:42.110Z,10.17
2023-03-16T16:53:12.213Z,10.13
2023-03-16T16:55:42.219Z,10.09
2023-03-16T16:58:18.464Z,10.05
2023-03-16T17:00:51.992Z,10.01
2023-03-16T17:03:24.106Z,9.97
2023-03-16T17:05:52.267Z,9.95
2023-03-16T17:08:19.940Z,9.91
2023-03-16T17:10:47.784Z,9.89
2023-03-16T17:13:21.842Z,9.88
2023-03-16T17:15:49.374Z,9.85
2023-03-16T17:18:18.181Z,9.82
2023-03-16T17:20:45.801Z,9.80
2023-03-16T17:23:22.684Z,9.77
2023-03-16T17:25:50.559Z,9.74
2023-03-16T17:28:18.446Z,9.70
2023-03-16T17:30:47.868Z,9.67
2023-03-16T17:33:15.766Z,9.65
2023-03-16T17:35:45.730Z,9.61
2023-03-16T17:38:17.342Z,9.58
2023-03-16T17:40:44.956Z,9.56
2023-03-16T17:43:13.328Z,9.53
2023-03-16T17:45:41.179Z,9.51
2023-03-16T17:48:12.668Z,9.49
2023-03-16T17:50:40.567Z,9.47
2023-03-16T17:53:09.538Z,9.43
2023-03-16T17:55:38.666Z,9.42
2023-03-16T17:58:06.215Z,9.39
2023-03-16T18:00:34.282Z,9.39
2023-03-16T18:03:02.782Z,9.36
2023-03-16T18:05:31.082Z,9.31
2023-03-16T18:07:59.994Z,9.31
2023-03-16T18:10:29.669Z,9.29
2023-03-16T18:12:58.681Z,9.26
2023-03-16T18:15:29.247Z,9.25
2023-03-16T18:17:56.858Z,9.23
2023-03-16T18:20:27.716Z,9.20
2023-03-16T18:22:56.146Z,9.17
2023-03-16T18:25:30.327Z,9.15
2023-03-16T18:27:58.595Z,9.12
2023-03-16T18:30:27.198Z,9.12
2023-03-16T18:32:55.182Z,9.09
2023-03-16T18:35:22.790Z,9.07
2023-03-16T18:37:50.261Z,9.05
2023-03-16T18:40:18.761Z,9.03
2023-03-16T18:42:47.704Z,9.00
2023-03-16T18:45:16.313Z,8.98
2023-03-16T18:47:45.601Z,8.94
2023-03-16T18:50:21.371Z,8.89
2023-03-16T18:52:48.914Z,8.86
2023-03-16T18:55:17.181Z,8.86
2023-03-16T18:57:46.573Z,8.85
2023-03-16T19:00:20.239Z,8.84
2023-03-16T19:02:48.336Z,8.83
2023-03-16T19:05:17.018Z,8.83
2023-03-16T19:07:45.682Z,8.82
2023-03-16T19:10:20.316Z,8.81
2023-03-16T19:12:47.747Z,8.81
2023-03-16T19:15:19.761Z,8.81
2023-03-16T19:17:47.841Z,8.83
2023-03-16T19:20:15.818Z,8.82
2023-03-16T19:22:43.849Z,8.82
2023-03-16T19:25:15.823Z,8.81
2023-03-16T19:27:43.274Z,8.80
2023-03-16T19:30:12.991Z,8.80
2023-03-16T19:32:41.862Z,8.78
2023-03-16T19:35:11.898Z,8.75
2023-03-16T19:37:39.389Z,8.74
2023-03-16T19:40:07.531Z,8.72
2023-03-16T19:42:36.305Z,8.72
2023-03-16T19:45:03.931Z,8.70
2023-03-16T19:47:31.862Z,8.69
2023-03-16T19:50:00.960Z,8.69
2023-03-16T19:52:31.187Z,8.68
2023-03-16T19:54:58.767Z,8.66
2023-03-16T19:57:26.508Z,8.66
2023-03-16T19:59:54.603Z,8.64
2023-03-16T20:02:26.510Z,8.65
2023-03-16T20:04:54.603Z,8.62
2023-03-16T20:07:23.564Z,8.62
2023-03-16T20:09:51.430Z,8.61
2023-03-16T20:12:21.878Z,8.61
2023-03-16T20:14:49.510Z,8.60
2023-03-16T20:17:19.376Z,8.59
2023-03-16T20:19:46.838Z,8.59
2023-03-16T20:22:14.537Z,8.59
2023-03-16T20:24:44.286Z,8.59
2023-03-16T20:27:12.600Z,8.59
2023-03-16T20:29:40.124Z,8.59
2023-03-16T20:32:08.158Z,8.60
2023-03-16T20:34:36.038Z,8.61
2023-03-16T20:37:03.572Z,8.60
2023-03-16T20:39:31.711Z,8.60
2023-03-16T20:42:00.886Z,8.62
2023-03-16T20:44:30.142Z,8.62
2023-03-16T20:46:57.684Z,8.63
2023-03-16T20:49:29.959Z,8.63
2023-03-16T20:51:57.532Z,8.63
2023-03-16T20:54:25.116Z,8.63
2023-03-16T20:56:52.642Z,8.64
2023-03-16T20:59:23.814Z,8.64
2023-03-16T21:01:51.904Z,8.66
2023-03-16T21:04:20.776Z,8.64
2023-03-16T21:06:50.851Z,8.65
2023-03-16T21:09:18.465Z,8.66
2023-03-16T21:11:46.042Z,8.68
2023-03-16T21:14:15.414Z,8.68
2023-03-16T21:16:44.650Z,8.67
2023-03-16T21:19:15.482Z,8.68
2023-03-16T21:21:42.944Z,8.68
2023-03-16T21:24:10.474Z,8.68
2023-03-16T21:26:38.355Z,8.68
2023-03-16T21:29:08.304Z,8.67
2023-03-16T21:31:36.249Z,8.66
2023-03-16T21:34:05.641Z,8.66
2023-03-16T21:36:33.125Z,8.67
2023-03-16T21:39:00.578Z,8.66
2023-03-16T21:41:28.293Z,8.66
2023-03-16T21:43:55.867Z,8.65
2023-03-16T21:46:23.965Z,8.64
2023-03-16T21:48:52.298Z,8.62
2023-03-16T21:51:22.013Z,8.62
2023-03-16T21:53:49.892Z,8.61
2023-03-16T21:56:18.443Z,8.61
2023-03-16T21:58:46.348Z,8.61
2023-03-16T22:01:20.758Z,8.60
2023-03-16T22:03:51.286Z,8.59
2023-03-16T22:06:19.024Z,8.59
2023-03-16T22:08:49.214Z,8.56
2023-03-16T22:11:17.911Z,8.56
2023-03-16T22:13:46.227Z,8.56
2023-03-16T22:16:14.163Z,8.53
2023-03-16T22:18:41.631Z,8.52
2023-03-16T22:21:14.481Z,8.50
2023-03-16T22:23:41.960Z,8.51
2023-03-16T22:26:14.376Z,8.49
2023-03-16T22:28:42.023Z,8.48
2023-03-16T22:31:11.366Z,8.46
2023-03-16T22:33:40.468Z,8.46
2023-03-16T22:36:09.344Z,8.43
2023-03-16T22:38:36.820Z,8.42
2023-03-16T22:41:04.333Z,8.39
2023-03-16T22:43:33.795Z,8.38
2023-03-16T22:46:01.370Z,8.33
2023-03-16T22:48:29.976Z,8.31
2023-03-16T22:50:57.910Z,8.30
2023-03-16T22:53:26.688Z,8.29
2023-03-16T22:55:54.599Z,8.28
2023-03-16T22:58:25.224Z,8.25
2023-03-16T23:00:54.977Z,8.22
2023-03-16T23:03:23.181Z,8.21
2023-03-16T23:05:50.840Z,8.18
2023-03-16T23:08:19.490Z,8.17
2023-03-16T23:10:46.935Z,8.15
2023-03-16T23:13:16.152Z,8.14
2023-03-16T23:15:44.297Z,8.13
2023-03-16T23:18:17.483Z,8.11
2023-03-16T23:20:45.152Z,8.09
2023-03-16T23:23:12.628Z,8.08
2023-03-16T23:25:40.173Z,8.06
2023-03-16T23:28:08.046Z,8.05
2023-03-16T23:30:36.009Z,8.05
2023-03-16T23:33:03.580Z,8.03
2023-03-16T23:35:32.550Z,8.04
2023-03-16T23:38:00.154Z,8.03
2023-03-16T23:40:28.697Z,8.03
2023-03-16T23:42:57.090Z,8.02
2023-03-16T23:45:29.621Z,8.02
2023-03-16T23:47:57.688Z,8.01
2023-03-16T23:50:26.092Z,8.00
2023-03-16T23:52:56.849Z,8.00
2023-03-16T23:55:24.737Z,7.98
2023-03-16T23:57:52.342Z,7.99
